Time;durP1;ratioP1;P1;durP2;ratioP2;P2;SDS_P1;SDS_P2;PMS_P1;PMS_P2;Temp;Humidity;BMP_temperature;BMP_pressure;BME280_temperature;BME280_humidity;BME280_pressure;Samples;Min_cycle;Max_cycle;Signal;HPM_P1;HPM_P2
2023/07/04 00:01:19;;;;;;;1.63;0.60;;;24.30;43.00;;;;;;5047144;28;20029;-63
2023/07/04 00:03:50;;;;;;;2.15;0.90;;;24.30;43.00;;;;;;5043472;28;20439;-61
2023/07/04 00:06:17;;;;;;;1.90;0.80;;;24.30;43.10;;;;;;5047298;28;20103;-62
2023/07/04 00:08:45;;;;;;;1.00;0.70;;;24.30;43.10;;;;;;5042051;28;20033;-63
2023/07/04 00:11:11;;;;;;;1.58;0.60;;;24.30;43.20;;;;;;5045768;28;20113;-64
2023/07/04 00:13:38;;;;;;;1.27;0.70;;;24.30;43.20;;;;;;5045302;28;20065;-62
2023/07/04 00:16:11;;;;;;;2.67;0.85;;;24.30;43.20;;;;;;5044225;28;20048;-61
2023/07/04 00:18:37;;;;;;;2.65;0.63;;;24.30;43.30;;;;;;5046707;28;20029;-62
2023/07/04 00:21:04;;;;;;;1.02;0.60;;;24.30;43.30;;;;;;5047738;28;20095;-63
2023/07/04 00:23:35;;;;;;;1.70;0.65;;;24.30;43.40;;;;;;5041985;28;20031;-64
2023/07/04 00:26:07;;;;;;;1.27;0.52;;;24.30;43.40;;;;;;5043599;28;20116;-62
2023/07/04 00:28:34;;;;;;;3.45;0.90;;;24.20;43.40;;;;;;5045386;28;20082;-63
2023/07/04 00:31:03;;;;;;;1.67;0.70;;;24.30;43.40;;;;;;5045944;28;20111;-64
2023/07/04 00:33:30;;;;;;;1.45;0.50;;;24.20;43.50;;;;;;5028951;28;20081;-61
2023/07/04 00:36:18;;;;;;;0.90;0.60;;;24.20;43.50;;;;;;5019676;28;20167;-61
2023/07/04 00:38:49;;;;;;;1.25;0.70;;;24.20;43.50;;;;;;5027014;28;20037;-63
2023/07/04 00:41:21;;;;;;;1.25;0.55;;;24.20;43.60;;;;;;5045645;28;20064;-61
2023/07/04 00:43:57;;;;;;;1.75;0.60;;;24.20;43.60;;;;;;5045674;28;20036;-61
2023/07/04 00:46:37;;;;;;;1.73;0.77;;;24.20;43.60;;;;;;5043447;28;20041;-61
2023/07/04 00:49:06;;;;;;;1.20;0.50;;;24.20;43.60;;;;;;5041644;28;20037;-61
2023/07/04 00:51:34;;;;;;;1.50;0.60;;;24.20;43.60;;;;;;5046359;28;20112;-63
2023/07/04 00:54:04;;;;;;;1.35;0.50;;;24.20;43.60;;;;;;5045692;28;20417;-62
2023/07/04 00:56:30;;;;;;;3.70;0.80;;;24.20;43.60;;;;;;5046110;28;20060;-61
2023/07/04 00:59:00;;;;;;;1.10;0.55;;;24.20;43.60;;;;;;5028377;28;20132;-60
2023/07/04 01:01:27;;;;;;;2.13;0.82;;;24.20;43.60;;;;;;5044203;28;20078;-60
2023/07/04 01:03:56;;;;;;;1.77;0.70;;;24.20;43.60;;;;;;5046797;28;20025;-63
2023/07/04 01:06:30;;;;;;;0.68;0.52;;;24.20;43.60;;;;;;5026112;28;20040;-62
2023/07/04 01:09:01;;;;;;;2.42;0.95;;;24.20;43.60;;;;;;5024081;28;20044;-63
2023/07/04 01:11:30;;;;;;;1.45;0.60;;;24.20;43.70;;;;;;5044654;28;20493;-61
2023/07/04 01:13:57;;;;;;;1.17;0.60;;;24.20;43.70;;;;;;5026418;28;20063;-61
2023/07/04 01:16:24;;;;;;;2.88;0.55;;;24.10;43.60;;;;;;5043893;28;20025;-61
2023/07/04 01:18:54;;;;;;;3.88;0.73;;;24.10;43.60;;;;;;5025088;28;20059;-61
2023/07/04 01:21:26;;;;;;;2.25;0.70;;;24.10;44.30;;;;;;5042388;28;20377;-60
2023/07/04 01:24:06;;;;;;;1.15;0.60;;;24.10;43.80;;;;;;5045506;28;20108;-63
2023/07/04 01:26:39;;;;;;;1.23;0.60;;;24.10;43.70;;;;;;5042507;28;20036;-62
2023/07/04 01:29:17;;;;;;;1.65;0.90;;;24.10;43.80;;;;;;5039941;28;20110;-61
2023/07/04 01:31:44;;;;;;;1.83;0.73;;;24.10;43.80;;;;;;5044475;28;20757;-62
2023/07/04 01:34:14;;;;;;;1.38;0.70;;;24.10;43.90;;;;;;5041275;28;20021;-63
2023/07/04 01:36:42;;;;;;;1.15;0.68;;;24.10;43.90;;;;;;5026562;28;20112;-62
2023/07/04 01:39:14;;;;;;;0.98;0.50;;;24.10;44.00;;;;;;5022602;28;20040;-63
2023/07/04 01:41:44;;;;;;;2.08;0.73;;;24.10;44.00;;;;;;5039052;28;20037;-63
2023/07/04 01:44:10;;;;;;;2.40;0.90;;;24.10;44.10;;;;;;5023866;28;20025;-63
2023/07/04 01:46:38;;;;;;;2.28;0.68;;;24.10;44.80;;;;;;5024083;28;20102;-63
2023/07/04 01:49:04;;;;;;;1.40;0.88;;;24.10;44.20;;;;;;5041018;28;20109;-62
2023/07/04 01:51:38;;;;;;;2.42;0.77;;;24.10;44.20;;;;;;5023595;28;20360;-62
2023/07/04 01:54:05;;;;;;;2.45;0.80;;;24.10;44.30;;;;;;5019897;28;20045;-63
2023/07/04 01:56:32;;;;;;;1.77;0.68;;;24.10;44.30;;;;;;5041979;28;20029;-62
2023/07/04 01:58:58;;;;;;;1.77;0.70;;;24.10;44.30;;;;;;5023655;28;20055;-65
2023/07/04 02:01:26;;;;;;;1.45;0.55;;;24.10;44.40;;;;;;5042469;28;20413;-63
2023/07/04 02:03:52;;;;;;;2.42;0.77;;;24.10;44.50;;;;;;5042624;28;20037;-63
2023/07/04 02:06:18;;;;;;;1.80;0.60;;;24.10;45.10;;;;;;5043400;28;20879;-61
2023/07/04 02:08:45;;;;;;;2.15;0.80;;;24.00;44.50;;;;;;5023954;28;20072;-62
2023/07/04 02:11:12;;;;;;;2.75;1.02;;;24.00;44.60;;;;;;5025791;28;20060;-63
2023/07/04 02:13:38;;;;;;;2.90;0.93;;;24.00;44.60;;;;;;5022265;28;20032;-62
2023/07/04 02:16:05;;;;;;;2.47;0.80;;;24.00;44.70;;;;;;5024898;28;20098;-64
2023/07/04 02:18:31;;;;;;;1.58;0.60;;;24.00;44.80;;;;;;5041170;28;20075;-64
2023/07/04 02:20:57;;;;;;;2.03;0.90;;;24.00;44.70;;;;;;5042558;28;20519;-64
2023/07/04 02:23:23;;;;;;;2.72;1.08;;;24.00;44.80;;;;;;5042585;28;20397;-63
2023/07/04 02:25:49;;;;;;;2.85;0.93;;;24.00;44.80;;;;;;5041628;28;20032;-62
2023/07/04 02:28:15;;;;;;;2.92;0.98;;;24.00;44.90;;;;;;5022725;28;20056;-64
2023/07/04 02:30:43;;;;;;;2.95;0.95;;;24.00;45.00;;;;;;5041218;28;20037;-63
2023/07/04 02:33:09;;;;;;;3.13;1.15;;;24.00;45.00;;;;;;5040200;28;20025;-63
2023/07/04 02:35:36;;;;;;;4.00;0.90;;;24.00;45.00;;;;;;5022375;28;20039;-64
2023/07/04 02:38:02;;;;;;;2.22;0.85;;;24.00;45.00;;;;;;5026479;28;20029;-63
2023/07/04 02:40:28;;;;;;;2.70;0.88;;;24.00;45.10;;;;;;5023814;28;20135;-64
2023/07/04 02:42:54;;;;;;;2.92;1.20;;;24.00;45.10;;;;;;5027865;28;20071;-62
2023/07/04 02:45:20;;;;;;;2.80;0.90;;;24.00;45.10;;;;;;5021939;28;20318;-64
2023/07/04 02:47:48;;;;;;;2.13;0.90;;;24.00;45.10;;;;;;5027529;28;20314;-62
2023/07/04 02:50:18;;;;;;;2.00;0.80;;;24.00;45.10;;;;;;5025054;28;20548;-62
2023/07/04 02:52:45;;;;;;;1.70;0.73;;;24.00;45.10;;;;;;5046278;28;20051;-62
2023/07/04 02:55:11;;;;;;;1.73;0.75;;;24.00;45.10;;;;;;5024169;28;20033;-64
2023/07/04 02:57:38;;;;;;;3.42;1.10;;;24.00;45.10;;;;;;5026958;28;20408;-64
2023/07/04 03:00:05;;;;;;;2.40;0.88;;;23.90;45.10;;;;;;5043448;28;20065;-62
2023/07/04 03:02:33;;;;;;;1.98;0.70;;;24.00;45.10;;;;;;5027639;28;20434;-65
2023/07/04 03:04:59;;;;;;;3.33;0.95;;;24.00;45.10;;;;;;5045144;28;20092;-60
2023/07/04 03:07:28;;;;;;;2.45;0.93;;;23.90;45.00;;;;;;5023676;28;20447;-60
2023/07/04 03:09:55;;;;;;;1.90;1.10;;;23.90;45.00;;;;;;5044729;28;20080;-62
2023/07/04 03:12:24;;;;;;;1.45;0.65;;;23.90;45.00;;;;;;5040544;28;20056;-62
2023/07/04 03:14:50;;;;;;;3.13;1.30;;;23.90;45.00;;;;;;5025295;28;20344;-63
2023/07/04 03:17:17;;;;;;;2.25;0.88;;;23.90;45.00;;;;;;5026001;28;20032;-61
2023/07/04 03:19:46;;;;;;;1.88;0.73;;;23.90;45.00;;;;;;5043776;28;20033;-60
2023/07/04 03:22:12;;;;;;;3.72;1.10;;;23.90;45.00;;;;;;5027441;28;20136;-64
2023/07/04 03:24:38;;;;;;;1.23;0.70;;;23.90;45.00;;;;;;5027157;28;20333;-64
2023/07/04 03:27:04;;;;;;;1.92;0.75;;;23.90;45.00;;;;;;5027763;28;20111;-62
2023/07/04 03:29:32;;;;;;;2.47;0.80;;;23.90;45.00;;;;;;5023778;28;20435;-66
2023/07/04 03:31:58;;;;;;;1.88;0.77;;;23.80;45.00;;;;;;5045118;28;20032;-65
2023/07/04 03:34:24;;;;;;;1.70;0.85;;;23.80;45.00;;;;;;5022045;28;20058;-61
2023/07/04 03:36:51;;;;;;;1.75;0.82;;;23.80;45.00;;;;;;5023887;28;20071;-60
2023/07/04 03:39:17;;;;;;;2.38;0.80;;;23.80;45.00;;;;;;5028293;28;20362;-62
2023/07/04 03:41:43;;;;;;;3.50;1.17;;;23.90;45.00;;;;;;5007017;28;20024;-61
2023/07/04 03:44:08;;;;;;;2.38;0.90;;;23.80;44.90;;;;;;5045207;28;20036;-61
2023/07/04 03:46:34;;;;;;;1.63;0.70;;;23.80;44.90;;;;;;5016866;28;20176;-62
2023/07/04 03:49:01;;;;;;;1.52;0.80;;;23.80;44.90;;;;;;5026999;28;20120;-66
2023/07/04 03:51:27;;;;;;;1.42;0.68;;;23.80;44.90;;;;;;5042920;28;20060;-63
2023/07/04 03:53:52;;;;;;;1.50;0.90;;;23.80;44.90;;;;;;5027899;28;20423;-63
2023/07/04 03:56:18;;;;;;;3.63;0.88;;;23.80;44.90;;;;;;5043636;28;20036;-61
2023/07/04 03:58:44;;;;;;;1.55;0.77;;;23.80;45.00;;;;;;5044996;28;20029;-62
2023/07/04 04:01:10;;;;;;;1.65;0.77;;;23.80;45.00;;;;;;5021179;28;20313;-62
2023/07/04 04:03:38;;;;;;;1.52;0.70;;;23.80;45.00;;;;;;5044800;28;20086;-62
2023/07/04 04:06:08;;;;;;;1.75;0.70;;;23.80;44.90;;;;;;5043426;28;20028;-63
2023/07/04 04:08:34;;;;;;;2.97;1.10;;;23.80;45.00;;;;;;5042210;28;20121;-64
2023/07/04 04:11:01;;;;;;;1.95;0.80;;;23.90;45.00;;;;;;5042788;28;20033;-63
2023/07/04 04:13:27;;;;;;;2.30;0.82;;;23.80;45.00;;;;;;5045350;28;20033;-65
2023/07/04 04:15:53;;;;;;;3.85;0.80;;;23.80;45.00;;;;;;5043074;28;20048;-65
2023/07/04 04:18:19;;;;;;;2.03;0.60;;;23.80;45.00;;;;;;5043629;28;20657;-63
2023/07/04 04:20:46;;;;;;;1.63;0.70;;;23.80;45.00;;;;;;5044854;28;20071;-64
2023/07/04 04:23:12;;;;;;;2.55;0.90;;;23.80;45.00;;;;;;5041970;28;20039;-63
2023/07/04 04:25:38;;;;;;;1.63;0.68;;;23.80;45.00;;;;;;5041225;28;20078;-61
2023/07/04 04:28:05;;;;;;;1.55;0.63;;;23.80;45.00;;;;;;5043181;28;20396;-64
2023/07/04 04:30:31;;;;;;;2.20;0.85;;;23.80;45.00;;;;;;5043113;28;20044;-63
2023/07/04 04:32:57;;;;;;;2.05;0.70;;;23.80;45.00;;;;;;5042852;28;20017;-61
2023/07/04 04:35:25;;;;;;;2.88;0.90;;;23.80;45.10;;;;;;5043036;28;20021;-63
2023/07/04 04:37:51;;;;;;;2.67;1.00;;;23.80;45.10;;;;;;5021612;28;20407;-60
2023/07/04 04:40:17;;;;;;;1.80;0.60;;;23.80;45.10;;;;;;5043092;28;20052;-63
2023/07/04 04:42:43;;;;;;;1.95;0.90;;;23.80;45.20;;;;;;5022875;28;20564;-61
2023/07/04 04:45:11;;;;;;;2.28;0.68;;;23.80;45.20;;;;;;5044480;28;20466;-63
2023/07/04 04:47:39;;;;;;;1.90;0.90;;;23.80;45.30;;;;;;5044319;28;20076;-63
2023/07/04 04:50:06;;;;;;;1.42;0.82;;;23.80;45.30;;;;;;5042175;28;20493;-63
2023/07/04 04:52:32;;;;;;;2.10;0.90;;;23.80;45.30;;;;;;5041252;28;20081;-62
2023/07/04 04:55:02;;;;;;;2.03;0.80;;;23.80;45.30;;;;;;5042035;28;20116;-61
2023/07/04 04:57:29;;;;;;;2.13;1.00;;;23.80;45.40;;;;;;5044156;28;20082;-61
2023/07/04 04:59:59;;;;;;;2.03;0.90;;;23.80;45.40;;;;;;5044544;28;20036;-63
2023/07/04 05:02:28;;;;;;;3.65;0.95;;;23.80;45.40;;;;;;5041778;28;20036;-62
2023/07/04 05:04:54;;;;;;;3.13;1.10;;;23.90;45.50;;;;;;5043082;28;20333;-63
2023/07/04 05:07:23;;;;;;;1.70;0.88;;;23.80;46.20;;;;;;5042843;28;20043;-62
2023/07/04 05:09:54;;;;;;;2.63;0.90;;;23.80;45.60;;;;;;5037000;28;20524;-62
2023/07/04 05:12:20;;;;;;;1.85;1.08;;;23.80;45.60;;;;;;5043509;28;20298;-63
2023/07/04 05:14:46;;;;;;;3.28;0.88;;;23.80;45.70;;;;;;5044609;28;20076;-62
2023/07/04 05:17:12;;;;;;;3.35;1.35;;;23.80;45.70;;;;;;5043357;28;20044;-61
2023/07/04 05:19:38;;;;;;;3.47;0.90;;;23.80;45.70;;;;;;5024397;28;20135;-63
2023/07/04 05:22:04;;;;;;;2.38;1.00;;;23.80;45.80;;;;;;5039836;28;20404;-62
2023/07/04 05:24:31;;;;;;;4.43;1.20;;;23.80;45.80;;;;;;5041630;28;20379;-61
2023/07/04 05:26:57;;;;;;;3.55;1.35;;;23.80;45.90;;;;;;5041094;28;20063;-65
2023/07/04 05:29:23;;;;;;;3.75;1.45;;;23.80;45.90;;;;;;5023090;28;20077;-62
2023/07/04 05:31:49;;;;;;;3.08;1.00;;;23.80;45.90;;;;;;5042632;28;20029;-62
2023/07/04 05:34:15;;;;;;;3.50;1.30;;;23.80;45.90;;;;;;5043852;28;20021;-62
2023/07/04 05:36:41;;;;;;;2.88;1.30;;;23.80;46.00;;;;;;5042581;28;20072;-63
2023/07/04 05:39:07;;;;;;;2.85;1.00;;;23.80;46.00;;;;;;5040865;28;20465;-62
2023/07/04 05:41:35;;;;;;;2.92;1.10;;;23.80;46.10;;;;;;5035866;28;20056;-62
2023/07/04 05:44:09;;;;;;;3.05;1.60;;;23.90;46.10;;;;;;5019124;28;20049;-62
2023/07/04 05:46:35;;;;;;;4.50;1.10;;;23.80;46.10;;;;;;5021935;28;20497;-62
2023/07/04 05:49:03;;;;;;;2.78;1.13;;;23.80;46.10;;;;;;5021938;28;20070;-65
2023/07/04 05:51:29;;;;;;;5.22;1.15;;;23.80;46.20;;;;;;5016319;28;20413;-63
2023/07/04 05:53:56;;;;;;;4.50;1.63;;;23.80;46.20;;;;;;5040483;28;20168;-62
2023/07/04 05:56:24;;;;;;;3.58;1.20;;;23.80;46.20;;;;;;5024194;28;20115;-64
2023/07/04 05:58:57;;;;;;;2.67;1.20;;;23.90;46.30;;;;;;5019457;28;20029;-63
2023/07/04 06:01:33;;;;;;;3.88;1.25;;;23.90;47.00;;;;;;5018808;28;20118;-62
2023/07/04 06:04:00;;;;;;;2.67;1.40;;;23.90;47.00;;;;;;5023796;28;20041;-64
2023/07/04 06:06:32;;;;;;;2.97;1.25;;;23.90;46.40;;;;;;5039045;28;20112;-63
2023/07/04 06:09:00;;;;;;;4.55;1.38;;;23.90;46.50;;;;;;5044495;28;20540;-63
2023/07/04 06:11:31;;;;;;;4.20;1.30;;;23.90;46.60;;;;;;5045397;28;20029;-63
2023/07/04 06:13:58;;;;;;;3.25;1.48;;;23.90;46.80;;;;;;5044958;28;20040;-62
2023/07/04 06:16:25;;;;;;;4.47;1.77;;;23.90;46.80;;;;;;5046088;28;20145;-61
2023/07/04 06:18:52;;;;;;;4.55;1.48;;;23.90;46.80;;;;;;5045887;28;20032;-63
2023/07/04 06:21:21;;;;;;;3.53;1.33;;;24.00;47.40;;;;;;5046290;28;20028;-63
2023/07/04 06:23:49;;;;;;;4.35;1.40;;;23.90;46.80;;;;;;5046260;28;20307;-62
2023/07/04 06:26:15;;;;;;;5.68;2.60;;;24.00;46.80;;;;;;5028909;28;20033;-63
2023/07/04 06:28:42;;;;;;;3.53;1.50;;;24.00;46.80;;;;;;5048268;28;20059;-65
2023/07/04 06:31:13;;;;;;;3.47;1.30;;;24.00;46.80;;;;;;5022194;28;20470;-61
2023/07/04 06:33:40;;;;;;;3.25;1.27;;;24.00;46.80;;;;;;5045564;28;20051;-63
2023/07/04 06:36:13;;;;;;;4.47;1.60;;;24.00;46.90;;;;;;5044908;28;20400;-62
2023/07/04 06:38:40;;;;;;;3.40;1.35;;;24.00;46.90;;;;;;5044243;28;20094;-66
2023/07/04 06:41:08;;;;;;;4.38;1.70;;;24.00;46.90;;;;;;5027419;28;20028;-60
2023/07/04 06:43:34;;;;;;;3.65;1.42;;;24.00;47.00;;;;;;5045656;28;20528;-60
2023/07/04 06:46:01;;;;;;;3.83;1.45;;;24.10;47.00;;;;;;5043434;28;20325;-61
2023/07/04 06:48:28;;;;;;;3.30;1.33;;;24.10;47.00;;;;;;5022446;28;20064;-63
2023/07/04 06:50:59;;;;;;;4.72;1.90;;;24.00;46.90;;;;;;5042912;28;20025;-62
2023/07/04 06:53:26;;;;;;;3.92;1.35;;;24.10;47.00;;;;;;5042506;28;20323;-61
2023/07/04 06:55:53;;;;;;;4.45;1.67;;;24.10;47.00;;;;;;5024362;28;20143;-64
2023/07/04 06:58:19;;;;;;;5.18;1.98;;;24.10;47.00;;;;;;5042486;28;20032;-63
2023/07/04 07:00:45;;;;;;;3.72;1.45;;;24.10;47.00;;;;;;5044977;28;20425;-62
2023/07/04 07:03:11;;;;;;;4.88;1.50;;;24.10;47.00;;;;;;5041905;28;20120;-62
2023/07/04 07:05:41;;;;;;;3.92;1.55;;;24.10;47.00;;;;;;5046268;28;20025;-63
2023/07/04 07:08:07;;;;;;;3.50;1.60;;;24.10;47.10;;;;;;5046303;28;20025;-62
2023/07/04 07:10:36;;;;;;;4.82;1.65;;;24.10;47.20;;;;;;5045100;28;20041;-62
2023/07/04 07:13:05;;;;;;;5.68;2.00;;;24.10;47.20;;;;;;5045338;28;20112;-61
2023/07/04 07:15:31;;;;;;;4.70;1.60;;;24.10;47.30;;;;;;5046654;28;20044;-61
2023/07/04 07:17:57;;;;;;;4.57;1.55;;;24.20;47.30;;;;;;5046033;28;20079;-62
2023/07/04 07:20:23;;;;;;;4.68;1.90;;;24.10;47.20;;;;;;5020642;28;20385;-61
2023/07/04 07:22:49;;;;;;;3.97;1.63;;;24.20;47.30;;;;;;5045379;28;20043;-63
2023/07/04 07:25:15;;;;;;;4.70;1.60;;;24.20;47.20;;;;;;5043597;28;20021;-60
2023/07/04 07:27:41;;;;;;;3.83;1.52;;;24.20;47.10;;;;;;5047745;28;20133;-62
2023/07/04 07:30:07;;;;;;;4.18;1.73;;;24.20;47.10;;;;;;5042872;28;20493;-62
2023/07/04 07:32:33;;;;;;;3.38;1.42;;;24.20;47.10;;;;;;5021522;28;20055;-61
2023/07/04 07:34:59;;;;;;;4.25;1.92;;;24.20;47.00;;;;;;5042688;28;20385;-63
2023/07/04 07:37:25;;;;;;;5.93;2.08;;;24.20;47.00;;;;;;5021311;28;20129;-64
2023/07/04 07:39:51;;;;;;;6.28;1.70;;;24.20;47.60;;;;;;5025122;28;20122;-62
2023/07/04 07:42:17;;;;;;;4.28;1.50;;;24.20;46.90;;;;;;5035317;28;20189;-63
2023/07/04 07:44:43;;;;;;;5.93;1.60;;;24.20;46.80;;;;;;5038999;28;20049;-63
2023/07/04 07:47:12;;;;;;;4.47;1.70;;;24.20;46.80;;;;;;5007840;28;20466;-63
2023/07/04 07:49:38;;;;;;;4.45;1.67;;;24.20;46.70;;;;;;5042187;28;20420;-64
2023/07/04 07:52:04;;;;;;;4.13;1.40;;;24.20;46.70;;;;;;5045858;28;20064;-63
2023/07/04 07:54:30;;;;;;;4.03;1.65;;;24.20;47.20;;;;;;5043857;28;20072;-65
2023/07/04 07:56:56;;;;;;;4.28;1.50;;;24.20;46.60;;;;;;5044865;28;20048;-64
2023/07/04 07:59:22;;;;;;;4.90;1.50;;;24.20;46.50;;;;;;5046174;28;20021;-64
2023/07/04 08:01:48;;;;;;;3.45;1.58;;;24.20;46.50;;;;;;5046003;28;20124;-61
2023/07/04 08:04:14;;;;;;;3.83;1.55;;;24.20;46.40;;;;;;5045833;28;20029;-65
2023/07/04 08:06:42;;;;;;;3.28;1.65;;;24.20;46.30;;;;;;5045978;28;20142;-62
2023/07/04 08:09:13;;;;;;;4.30;1.20;;;24.20;46.30;;;;;;5045556;28;20033;-61
2023/07/04 08:11:41;;;;;;;5.38;1.67;;;24.20;46.20;;;;;;5045669;28;21523;-63
2023/07/04 08:14:07;;;;;;;4.28;1.52;;;24.20;46.10;;;;;;5045706;28;20037;-61
2023/07/04 08:16:45;;;;;;;4.88;1.70;;;24.20;46.10;;;;;;5046112;28;20097;-65
2023/07/04 08:19:12;;;;;;;3.58;1.50;;;24.30;46.10;;;;;;5042641;28;20033;-60
2023/07/04 08:21:38;;;;;;;2.95;1.38;;;24.30;46.00;;;;;;5045938;28;20035;-64
2023/07/04 08:24:10;;;;;;;4.25;1.40;;;24.30;46.00;;;;;;5044083;28;20053;-61
2023/07/04 08:26:40;;;;;;;3.53;1.40;;;24.30;45.90;;;;;;5042533;28;20029;-63
2023/07/04 08:29:07;;;;;;;3.00;1.48;;;24.30;45.80;;;;;;5027003;28;20200;-64
2023/07/04 08:31:34;;;;;;;3.45;1.45;;;24.30;45.70;;;;;;5025970;28;20048;-63
2023/07/04 08:34:00;;;;;;;4.43;1.65;;;24.30;45.60;;;;;;5044085;28;20051;-64
2023/07/04 08:36:26;;;;;;;4.00;1.52;;;24.30;46.10;;;;;;5042768;28;20400;-63
2023/07/04 08:38:53;;;;;;;4.78;1.52;;;24.30;45.40;;;;;;5043446;28;20131;-63
2023/07/04 08:41:18;;;;;;;4.18;1.70;;;24.30;45.30;;;;;;5040197;28;20127;-63
2023/07/04 08:44:13;;;;;;;4.82;1.80;;;24.30;45.20;;;;;;5043052;28;20140;-67
2023/07/04 08:46:41;;;;;;;5.05;1.67;;;24.30;45.10;;;;;;5039860;28;20358;-62
2023/07/04 08:49:20;;;;;;;2.88;1.40;;;24.30;45.00;;;;;;5046114;28;20048;-63
2023/07/04 08:52:03;;;;;;;3.20;1.23;;;24.30;44.80;;;;;;5045142;28;20409;-62
2023/07/04 08:54:29;;;;;;;5.32;1.48;;;24.30;44.70;;;;;;5024158;28;20029;-65
2023/07/04 08:57:05;;;;;;;2.92;1.30;;;24.30;44.60;;;;;;5024980;28;20410;-63
2023/07/04 08:59:43;;;;;;;3.88;1.35;;;24.30;44.40;;;;;;5044314;28;20102;-62
2023/07/04 09:02:30;;;;;;;4.30;1.40;;;24.30;44.30;;;;;;5042742;28;20056;-64
2023/07/04 09:05:13;;;;;;;2.80;1.10;;;24.30;44.20;;;;;;5043159;28;20312;-62
2023/07/04 09:07:39;;;;;;;4.15;1.30;;;24.40;44.20;;;;;;5044459;28;20073;-63
2023/07/04 09:10:24;;;;;;;3.83;1.27;;;24.40;44.10;;;;;;5040440;28;20035;-64
2023/07/04 09:12:50;;;;;;;3.53;1.45;;;24.40;44.00;;;;;;5045349;28;20021;-62
2023/07/04 09:15:40;;;;;;;3.45;1.52;;;24.40;43.90;;;;;;5006124;28;20025;-61
2023/07/04 09:18:17;;;;;;;3.75;1.50;;;24.40;43.90;;;;;;5044776;28;20403;-64
2023/07/04 09:20:49;;;;;;;4.10;1.40;;;24.40;43.80;;;;;;5043220;28;20075;-63
2023/07/04 09:23:20;;;;;;;4.25;1.60;;;24.40;43.60;;;;;;5044927;28;20033;-62
2023/07/04 09:25:46;;;;;;;3.30;1.30;;;24.40;43.50;;;;;;5024404;28;20033;-62
2023/07/04 09:28:12;;;;;;;3.45;1.20;;;24.40;43.40;;;;;;5044991;28;20077;-63
2023/07/04 09:30:38;;;;;;;2.42;1.10;;;24.50;43.40;;;;;;5025858;28;20029;-61
2023/07/04 09:33:05;;;;;;;2.78;1.10;;;24.50;43.20;;;;;;5046215;28;20142;-62
2023/07/04 09:35:31;;;;;;;3.25;1.25;;;24.50;43.70;;;;;;5043705;28;20457;-64
2023/07/04 09:37:59;;;;;;;4.10;1.20;;;24.50;43.00;;;;;;5044542;28;20025;-63
2023/07/04 09:40:54;;;;;;;2.25;1.30;;;24.50;42.90;;;;;;5040720;28;20847;-66
2023/07/04 09:43:27;;;;;;;;;;;24.50;42.80;;;;;;5043200;28;20033;-62
2023/07/04 09:46:12;;;;;;;3.75;1.30;;;24.60;42.80;;;;;;5045573;28;19936;-62
2023/07/04 09:48:39;;;;;;;3.90;1.35;;;24.60;42.70;;;;;;5044165;28;20045;-63
2023/07/04 09:51:23;;;;;;;3.45;1.33;;;24.60;42.60;;;;;;5048366;28;20061;-63
2023/07/04 09:53:49;;;;;;;3.85;1.17;;;24.60;42.40;;;;;;5047672;28;20504;-61
2023/07/04 09:56:27;;;;;;;4.03;1.27;;;24.60;42.30;;;;;;5046206;28;20160;-62
2023/07/04 09:59:14;;;;;;;3.35;1.35;;;24.60;42.10;;;;;;5047492;28;20037;-61
2023/07/04 10:01:43;;;;;;;3.53;1.25;;;24.60;42.00;;;;;;5041575;28;20096;-63
2023/07/04 10:04:11;;;;;;;3.10;1.13;;;24.60;41.90;;;;;;5046937;28;20452;-62
2023/07/04 10:06:39;;;;;;;3.05;1.20;;;24.60;41.90;;;;;;5047309;28;20025;-62
2023/07/04 10:09:16;;;;;;;3.92;1.20;;;24.60;41.80;;;;;;5041496;28;20166;-65
2023/07/04 10:11:43;;;;;;;1.92;0.82;;;24.60;41.80;;;;;;5040712;28;20432;-64
2023/07/04 10:14:13;;;;;;;4.32;1.27;;;24.60;41.70;;;;;;5045044;28;20025;-62
2023/07/04 10:16:51;;;;;;;4.75;1.42;;;24.70;41.70;;;;;;5044836;28;20029;-64
2023/07/04 10:19:23;;;;;;;3.72;1.38;;;24.70;41.60;;;;;;5045253;28;20124;-64
2023/07/04 10:21:51;;;;;;;3.88;1.25;;;24.70;41.40;;;;;;5047769;28;20092;-64
2023/07/04 10:24:23;;;;;;;2.20;0.88;;;24.70;41.30;;;;;;5021867;28;20030;-57
2023/07/04 10:26:57;;;;;;;4.30;1.23;;;24.70;41.20;;;;;;5046229;28;20024;-65
2023/07/04 10:29:48;;;;;;;3.92;1.10;;;24.70;41.10;;;;;;5037796;28;20106;-67
2023/07/04 10:32:18;;;;;;;2.83;1.00;;;24.70;41.10;;;;;;5036347;28;20061;-68
2023/07/04 10:34:48;;;;;;;2.17;1.00;;;24.70;41.30;;;;;;5043052;28;20081;-67
2023/07/04 10:37:31;;;;;;;3.28;1.20;;;24.80;41.30;;;;;;5042005;28;20029;-63
2023/07/04 10:40:08;;;;;;;2.58;1.00;;;24.90;41.20;;;;;;5048674;28;20036;-66
2023/07/04 10:43:19;;;;;;;4.50;1.00;;;24.90;41.00;;;;;;5026616;28;20029;-68
2023/07/04 10:45:48;;;;;;;3.50;1.10;;;25.10;40.90;;;;;;4973130;28;20056;-65
2023/07/04 10:48:16;;;;;;;2.58;1.00;;;25.20;40.80;;;;;;5051390;28;20020;-68
2023/07/04 10:51:33;;;;;;;2.50;1.10;;;25.30;40.70;;;;;;5045257;28;20051;-64
2023/07/04 10:53:59;;;;;;;2.47;0.90;;;25.40;40.50;;;;;;5003706;28;20357;-63
2023/07/04 10:56:32;;;;;;;3.58;1.00;;;25.50;40.50;;;;;;5044305;28;20048;-62
2023/07/04 10:59:14;;;;;;;2.45;1.08;;;25.60;40.40;;;;;;5044048;28;20029;-65
2023/07/04 11:02:05;;;;;;;3.15;1.05;;;25.70;40.20;;;;;;5045534;28;20040;-62
2023/07/04 11:04:38;;;;;;;3.20;1.08;;;25.80;40.10;;;;;;5048035;28;20032;-63
2023/07/04 11:07:12;;;;;;;2.80;1.05;;;25.90;39.90;;;;;;5028241;28;20029;-64
2023/07/04 11:09:40;;;;;;;;;;;26.00;39.70;;;;;;5048131;28;20418;-65
2023/07/04 11:12:15;;;;;;;4.70;1.17;;;26.10;39.60;;;;;;5048158;28;19920;-66
2023/07/04 11:14:44;;;;;;;2.45;1.13;;;26.10;39.40;;;;;;5046295;28;20041;-64
2023/07/04 11:17:20;;;;;;;3.17;0.98;;;26.20;39.30;;;;;;5048714;28;20036;-65
2023/07/04 11:20:11;;;;;;;2.03;0.90;;;26.30;39.10;;;;;;5045007;28;20029;-67
2023/07/04 11:22:46;;;;;;;2.40;1.05;;;26.40;38.90;;;;;;5046747;28;20043;-66
2023/07/04 11:25:27;;;;;;;2.35;1.00;;;26.40;38.80;;;;;;5042664;28;20363;-64
2023/07/04 11:28:16;;;;;;;3.63;1.17;;;26.40;38.60;;;;;;5045460;28;20096;-64
2023/07/04 11:30:48;;;;;;;4.68;1.35;;;26.50;38.50;;;;;;5024730;28;20033;-64
2023/07/04 11:33:38;;;;;;;2.38;1.02;;;26.50;38.50;;;;;;5038485;28;20099;-63
2023/07/04 11:36:17;;;;;;;3.28;0.95;;;26.60;38.40;;;;;;5044394;28;20032;-63
2023/07/04 11:38:50;;;;;;;2.63;1.10;;;26.60;38.20;;;;;;5043909;28;20039;-64
2023/07/04 11:41:18;;;;;;;2.45;1.20;;;26.60;38.10;;;;;;5043501;28;20973;-64
2023/07/04 11:43:47;;;;;;;3.55;1.90;;;26.70;38.00;;;;;;5047310;28;20045;-64
2023/07/04 11:46:32;;;;;;;2.28;1.10;;;26.70;37.90;;;;;;5039384;28;20037;-63
2023/07/04 11:48:58;;;;;;;3.42;1.30;;;26.80;37.80;;;;;;5044383;28;20045;-62
2023/07/04 11:51:28;;;;;;;2.75;1.50;;;26.70;37.70;;;;;;5040472;28;20030;-66
2023/07/04 11:53:58;;;;;;;2.42;1.30;;;26.80;37.70;;;;;;5038972;28;20037;-64
2023/07/04 11:56:30;;;;;;;4.50;1.70;;;26.80;37.70;;;;;;5045322;28;20108;-63
2023/07/04 11:59:11;;;;;;;4.47;2.13;;;26.90;37.70;;;;;;5047021;28;20025;-63
2023/07/04 12:01:52;;;;;;;6.20;2.90;;;26.90;37.70;;;;;;5042665;28;20040;-65
2023/07/04 12:04:33;;;;;;;5.13;3.17;;;26.90;37.80;;;;;;5039965;28;20052;-65
2023/07/04 12:07:18;;;;;;;6.40;4.00;;;27.00;37.90;;;;;;5036101;28;20037;-65
2023/07/04 12:10:07;;;;;;;6.82;4.30;;;27.00;38.00;;;;;;5040915;28;20098;-65
2023/07/04 12:12:35;;;;;;;7.90;5.43;;;27.00;37.90;;;;;;5040438;28;20405;-65
2023/07/04 12:15:09;;;;;;;9.43;5.40;;;27.00;37.90;;;;;;5029122;28;20151;-64
2023/07/04 12:17:40;;;;;;;7.25;5.32;;;27.10;37.90;;;;;;5019119;28;20370;-63
2023/07/04 12:20:13;;;;;;;7.57;6.00;;;27.10;37.90;;;;;;5026097;28;20115;-64
2023/07/04 12:22:52;;;;;;;7.78;5.95;;;27.10;37.80;;;;;;5040868;28;20329;-65
2023/07/04 12:25:28;;;;;;;9.02;6.57;;;27.10;37.70;;;;;;5039682;28;20116;-69
2023/07/04 12:27:56;;;;;;;9.75;7.75;;;27.10;37.70;;;;;;5037424;28;20115;-66
2023/07/04 12:30:22;;;;;;;11.32;8.15;;;27.20;37.70;;;;;;5040727;28;20052;-63
2023/07/04 12:32:53;;;;;;;9.32;6.85;;;27.20;37.70;;;;;;5040029;28;20041;-65
2023/07/04 12:35:25;;;;;;;8.57;6.47;;;27.20;37.50;;;;;;5044772;28;20040;-62
2023/07/04 12:37:54;;;;;;;7.78;5.93;;;27.20;37.40;;;;;;5035468;28;20059;-65
2023/07/04 12:40:30;;;;;;;6.93;5.05;;;27.20;37.30;;;;;;5022175;28;20091;-64
2023/07/04 12:42:59;;;;;;;6.88;5.00;;;27.20;37.20;;;;;;5039032;28;20040;-64
2023/07/04 12:45:27;;;;;;;8.80;6.00;;;27.30;37.20;;;;;;5038356;28;20072;-66
2023/07/04 12:48:04;;;;;;;7.57;6.07;;;27.30;37.10;;;;;;5044570;28;20044;-62
2023/07/04 12:50:31;;;;;;;11.80;7.82;;;27.30;37.20;;;;;;5037348;28;20452;-61
2023/07/04 12:52:58;;;;;;;9.02;7.20;;;27.30;37.20;;;;;;5037371;28;20045;-60
2023/07/04 12:55:30;;;;;;;9.80;6.85;;;27.30;37.90;;;;;;5036922;28;20431;-62
2023/07/04 12:57:57;;;;;;;8.15;6.13;;;27.40;37.30;;;;;;5035297;28;20139;-64
2023/07/04 13:00:29;;;;;;;8.73;5.97;;;27.30;37.20;;;;;;5034835;28;20037;-61
2023/07/04 13:03:02;;;;;;;8.50;6.00;;;27.30;37.30;;;;;;5035966;28;20364;-68